Time;durP1;ratioP1;P1;durP2;ratioP2;P2;SDS_P1;SDS_P2;PMS_P1;PMS_P2;Temp;Humidity;BMP_temperature;BMP_pressure;BME280_temperature;BME280_humidity;BME280_pressure;Samples;Min_cycle;Max_cycle;Signal;HPM_P1;HPM_P2
2023/03/15 00:06:02;;;;;;;0.82;0.55;;;;;;;16.84;44.18;100515.31;20862384;28;20496;-87
2023/03/15 00:16:07;;;;;;;1.00;0.40;;;;;;;16.98;43.97;100551.75;20859518;28;20048;-87
2023/03/15 00:26:10;;;;;;;1.20;0.50;;;;;;;17.02;44.24;100572.00;20847888;28;20333;-87
2023/03/15 00:36:13;;;;;;;1.73;0.60;;;;;;;17.04;43.89;100576.25;20835644;28;20414;-87
2023/03/15 00:46:17;;;;;;;2.28;0.70;;;;;;;17.07;44.03;100586.72;20849936;28;20064;-88
2023/03/15 00:56:23;;;;;;;1.80;0.60;;;;;;;17.13;43.70;100596.06;20854339;28;20545;-87
2023/03/15 01:06:27;;;;;;;1.27;0.50;;;;;;;17.17;43.62;100602.03;20840070;28;20073;-86
2023/03/15 01:16:28;;;;;;;2.63;0.70;;;;;;;17.19;43.59;100630.47;20844928;28;20052;-87
2023/03/15 01:26:32;;;;;;;1.52;0.80;;;;;;;17.17;43.66;100640.53;20855028;28;20041;-87
2023/03/15 01:36:34;;;;;;;1.38;0.60;;;;;;;17.20;43.53;100656.38;20850731;28;20056;-87
2023/03/15 01:46:36;;;;;;;0.88;0.47;;;;;;;17.21;43.46;100660.78;20865586;28;20338;-86
2023/03/15 01:57:21;;;;;;;1.42;0.73;;;;;;;17.30;43.44;100696.78;20851780;28;20473;-86
2023/03/15 02:07:25;;;;;;;0.82;0.50;;;;;;;17.35;43.43;100712.53;20834221;28;20053;-87
2023/03/15 02:17:42;;;;;;;1.13;0.57;;;;;;;17.38;43.16;100734.59;20878118;28;20520;-86
2023/03/15 02:27:45;;;;;;;0.80;0.43;;;;;;;17.43;43.20;100744.97;20867481;28;20153;-87
2023/03/15 02:37:49;;;;;;;1.02;0.50;;;;;;;17.46;43.11;100742.00;20861097;28;20049;-88
2023/03/15 02:47:52;;;;;;;2.35;0.68;;;;;;;17.50;42.98;100754.19;20872914;28;20059;-88
2023/03/15 02:57:55;;;;;;;1.10;0.50;;;;;;;17.54;42.96;100776.31;20861004;28;20067;-87
2023/03/15 03:07:57;;;;;;;1.02;0.45;;;;;;;17.58;42.91;100795.72;20848890;28;20060;-87
2023/03/15 03:18:01;;;;;;;0.63;0.20;;;;;;;17.61;42.61;100809.78;20856720;28;20049;-87
2023/03/15 03:28:03;;;;;;;1.88;0.85;;;;;;;17.64;42.52;100824.78;20831480;28;20059;-87
2023/03/15 03:38:08;;;;;;;1.47;0.70;;;;;;;17.68;42.47;100847.78;20852303;28;20048;-87
2023/03/15 03:48:15;;;;;;;1.42;0.52;;;;;;;17.73;42.60;100871.59;20860101;28;20051;-87
2023/03/15 03:58:18;;;;;;;0.68;0.40;;;;;;;17.76;42.30;100880.25;20858781;28;20044;-87
2023/03/15 04:08:27;;;;;;;1.85;0.65;;;;;;;17.79;42.09;100898.84;20864635;28;20055;-87
2023/03/15 04:18:30;;;;;;;0.63;0.30;;;;;;;17.83;42.16;100920.94;20856353;28;20456;-86
2023/03/15 04:28:32;;;;;;;0.88;0.50;;;;;;;17.86;41.91;100942.22;20856355;28;20060;-87
2023/03/15 04:38:47;;;;;;;0.85;0.50;;;;;;;17.90;41.82;100965.22;20855163;28;20519;-89
2023/03/15 04:49:13;;;;;;;0.37;0.30;;;;;;;17.95;41.72;100980.97;20851346;28;20053;-87
2023/03/15 04:59:44;;;;;;;1.40;0.30;;;;;;;17.97;41.67;100985.25;20848496;28;20045;-87
2023/03/15 05:10:05;;;;;;;0.73;0.45;;;;;;;17.93;41.52;100991.00;20851217;28;20056;-87
2023/03/15 05:20:16;;;;;;;0.45;0.30;;;;;;;18.02;41.48;101010.94;20835426;28;20045;-87
2023/03/15 05:30:47;;;;;;;0.82;0.40;;;;;;;18.04;41.33;101031.34;20826636;28;20045;-87
2023/03/15 05:41:10;;;;;;;0.65;0.40;;;;;;;18.04;41.25;101041.28;20840692;28;20056;-87
2023/03/15 05:51:21;;;;;;;0.40;0.30;;;;;;;18.04;41.23;101057.47;20844693;28;20060;-88
2023/03/15 06:01:41;;;;;;;1.33;0.40;;;;;;;17.88;41.29;101057.91;20864385;28;20045;-88
2023/03/15 06:11:53;;;;;;;0.45;0.30;;;;;;;17.89;41.06;101060.44;20893411;28;20738;-88
2023/03/15 06:21:56;;;;;;;1.00;0.55;;;;;;;18.02;41.32;101103.38;20852174;28;20048;-90
2023/03/15 06:32:24;;;;;;;0.70;0.30;;;;;;;18.02;41.35;101105.22;20869696;28;20045;-91
2023/03/15 06:42:26;;;;;;;1.35;0.50;;;;;;;18.03;41.52;101136.56;20867047;28;20075;-89
2023/03/15 06:52:32;;;;;;;1.38;0.30;;;;;;;17.89;41.68;101118.84;20863736;28;20448;-89
2023/03/15 07:02:36;;;;;;;0.30;0.30;;;;;;;18.09;41.71;101163.81;20855287;28;20064;-89
2023/03/15 07:12:38;;;;;;;2.00;0.55;;;;;;;18.09;41.71;101171.91;20897222;28;20045;-89
2023/03/15 07:22:39;;;;;;;1.00;0.30;;;;;;;18.16;41.70;101206.44;20886535;28;20160;-89
2023/03/15 07:32:41;;;;;;;1.40;0.55;;;;;;;18.03;41.88;101199.38;20850667;28;20053;-89
2023/03/15 07:42:43;;;;;;;1.02;0.30;;;;;;;18.15;42.03;101226.28;20830845;28;20068;-88
2023/03/15 07:52:47;;;;;;;1.27;0.40;;;;;;;18.18;42.02;101240.34;20840452;28;20400;-86
2023/03/15 08:02:49;;;;;;;1.65;0.57;;;;;;;18.23;42.29;101243.50;20841922;28;20052;-86
2023/03/15 08:12:51;;;;;;;0.65;0.57;;;;;;;18.14;42.12;101232.66;20847776;28;20140;-88
2023/03/15 08:22:52;;;;;;;1.75;0.60;;;;;;;18.28;42.00;101275.44;20853370;28;20118;-88
2023/03/15 08:32:54;;;;;;;1.13;0.50;;;;;;;18.30;42.03;101278.00;20858678;28;20041;-88
2023/03/15 08:42:56;;;;;;;0.80;0.40;;;;;;;18.28;42.16;101294.31;20874319;28;20044;-89
2023/03/15 08:52:58;;;;;;;1.73;0.82;;;;;;;18.27;42.33;101311.47;20871018;28;20049;-90
2023/03/15 09:03:00;;;;;;;1.10;0.70;;;;;;;18.26;42.36;101334.84;20879714;28;20080;-90
2023/03/15 09:13:02;;;;;;;1.35;0.50;;;;;;;18.14;42.46;101324.28;20876124;28;20120;-89
2023/03/15 09:23:03;;;;;;;1.17;0.80;;;;;;;18.20;42.45;101334.53;20877264;28;20045;-88
2023/03/15 09:33:06;;;;;;;1.95;0.60;;;;;;;18.18;42.45;101333.81;20868471;28;20056;-88
2023/03/15 09:43:35;;;;;;;1.20;0.55;;;;;;;18.16;42.38;101339.31;20876523;28;20098;-88
2023/03/15 09:53:49;;;;;;;1.60;0.57;;;;;;;18.14;42.43;101359.31;20847604;28;20073;-88
2023/03/15 10:03:52;;;;;;;1.77;0.40;;;;;;;18.06;42.28;101333.81;20874342;28;20058;-89
2023/03/15 10:14:01;;;;;;;1.77;0.70;;;;;;;18.08;42.21;101350.72;20866151;28;20082;-88
2023/03/15 10:24:04;;;;;;;1.85;0.70;;;;;;;17.94;42.00;101334.81;20905679;28;20135;-90
2023/03/15 10:34:08;;;;;;;1.75;0.70;;;;;;;18.01;42.24;101375.63;20909213;28;20044;-89
2023/03/15 10:44:22;;;;;;;2.35;0.60;;;;;;;18.04;41.89;101388.81;20873316;28;20044;-87
2023/03/15 10:54:25;;;;;;;1.80;0.70;;;;;;;18.02;41.78;101399.72;20895972;28;20570;-87
2023/03/15 11:04:28;;;;;;;1.98;0.70;;;;;;;18.01;41.59;101408.78;20844251;28;20041;-87
2023/03/15 11:14:42;;;;;;;1.33;0.60;;;;;;;17.98;41.53;101428.72;20843698;28;20434;-86
2023/03/15 11:24:44;;;;;;;2.28;0.60;;;;;;;17.97;41.35;101434.22;20843776;28;20509;-86
2023/03/15 11:35:05;;;;;;;2.00;0.50;;;;;;;17.95;41.04;101438.88;20835768;28;20064;-86
2023/03/15 11:45:16;;;;;;;2.25;0.70;;;;;;;17.95;41.02;101444.28;20835705;28;20122;-87
2023/03/15 11:55:27;;;;;;;1.67;0.50;;;;;;;17.94;40.82;101439.88;20843056;28;20950;-86
2023/03/15 12:05:44;;;;;;;1.33;0.60;;;;;;;17.92;40.61;101440.00;20838855;28;20053;-87
2023/03/15 12:15:47;;;;;;;1.83;0.70;;;;;;;17.92;40.46;101449.91;20855205;28;20526;-89
2023/03/15 12:26:04;;;;;;;0.82;0.60;;;;;;;17.83;40.46;101428.13;20915885;28;20052;-87
2023/03/15 12:36:33;;;;;;;1.63;0.77;;;;;;;17.90;40.32;101425.81;20897460;28;20038;-85
2023/03/15 12:46:37;;;;;;;1.98;0.80;;;;;;;17.90;40.17;101428.50;20906046;28;20501;-84
2023/03/15 12:56:42;;;;;;;2.37;0.70;;;;;;;17.60;40.14;101383.31;20896012;28;20044;-83
2023/03/15 13:07:01;;;;;;;1.50;0.60;;;;;;;17.89;40.01;101431.31;20900145;28;20052;-85
2023/03/15 13:17:27;;;;;;;1.75;0.55;;;;;;;17.47;40.18;101370.00;20859087;28;20428;-86
2023/03/15 13:27:42;;;;;;;1.58;0.52;;;;;;;17.88;40.09;101449.28;20850760;28;20041;-84
2023/03/15 13:37:46;;;;;;;1.95;0.60;;;;;;;17.87;40.13;101438.66;20869124;28;20378;-86
2023/03/15 13:47:48;;;;;;;1.23;0.60;;;;;;;17.54;40.05;101390.06;20866787;28;20049;-86
2023/03/15 13:57:53;;;;;;;1.05;0.50;;;;;;;17.86;39.94;101445.84;20867440;28;20110;-86
2023/03/15 14:08:02;;;;;;;1.30;0.47;;;;;;;17.77;40.25;101443.91;20872389;28;20106;-87
2023/03/15 14:18:06;;;;;;;1.60;0.68;;;;;;;17.87;40.12;101454.81;20862760;28;20046;-86
2023/03/15 14:28:14;;;;;;;1.23;0.60;;;;;;;17.71;39.91;101444.41;20869913;28;20059;-85
2023/03/15 14:38:23;;;;;;;1.40;0.98;;;;;;;17.85;40.01;101457.59;20833150;28;20409;-85
2023/03/15 14:48:30;;;;;;;1.58;0.65;;;;;;;17.83;39.88;101465.84;20857193;28;20505;-87
2023/03/15 14:58:32;;;;;;;0.73;0.40;;;;;;;17.83;39.77;101479.28;20851741;28;20110;-85
2023/03/15 15:08:37;;;;;;;1.10;0.47;;;;;;;17.82;39.79;101495.56;20908171;28;20041;-85
2023/03/15 15:18:38;;;;;;;;;;;;;;;17.81;39.80;101489.34;20841086;28;20072;-83
2023/03/15 15:28:41;;;;;;;0.85;0.47;;;;;;;17.79;39.92;101491.28;20850604;28;19933;-86
2023/03/15 15:38:43;;;;;;;1.90;0.52;;;;;;;17.77;39.74;101479.78;20853093;28;20147;-87
2023/03/15 15:48:45;;;;;;;1.02;0.60;;;;;;;17.73;39.49;101459.47;20864824;28;20064;-85
2023/03/15 15:58:47;;;;;;;1.42;0.57;;;;;;;17.65;39.71;101453.81;20894961;28;20229;-87
2023/03/15 16:08:50;;;;;;;0.82;0.47;;;;;;;17.77;39.53;101474.41;20866736;28;20064;-87
2023/03/15 16:18:52;;;;;;;1.42;0.50;;;;;;;17.75;39.58;101468.28;20865432;28;20041;-85
2023/03/15 16:28:54;;;;;;;0.82;0.52;;;;;;;17.74;39.62;101477.34;20849324;28;20061;-85
2023/03/15 16:38:55;;;;;;;1.35;0.55;;;;;;;17.72;39.67;101470.34;20853692;28;20080;-85
2023/03/15 16:48:57;;;;;;;1.63;0.47;;;;;;;17.72;39.67;101491.88;20869408;28;20060;-86
2023/03/15 16:58:59;;;;;;;1.65;0.57;;;;;;;17.71;39.80;101491.03;20874210;28;20048;-83
2023/03/15 17:09:03;;;;;;;1.05;0.73;;;;;;;17.69;39.83;101501.94;20859661;28;20045;-87
2023/03/15 17:19:10;;;;;;;1.17;0.40;;;;;;;17.56;40.01;101478.78;20852529;28;20053;-86
2023/03/15 17:29:14;;;;;;;0.75;0.55;;;;;;;17.56;40.07;101478.78;21001733;22;20067;-93
2023/03/15 17:39:16;;;;;;;1.67;0.60;;;;;;;17.60;39.99;101489.19;20844818;28;20056;-90
2023/03/15 17:49:17;;;;;;;1.95;0.38;;;;;;;17.64;40.30;101489.78;20841810;28;20382;-88
2023/03/15 17:59:19;;;;;;;0.82;0.40;;;;;;;17.48;40.05;101469.47;20843318;28;20048;-88
2023/03/15 18:09:22;;;;;;;0.82;0.30;;;;;;;17.39;40.17;101467.50;20841296;28;20065;-88
2023/03/15 18:19:25;;;;;;;0.98;0.50;;;;;;;17.61;40.27;101519.66;20852199;28;20048;-86
2023/03/15 18:29:27;;;;;;;0.95;0.40;;;;;;;17.56;40.22;101532.59;20852931;28;20468;-89
2023/03/15 18:39:29;;;;;;;0.85;0.40;;;;;;;17.33;40.31;101500.28;20825741;28;20123;-87
2023/03/15 18:49:30;;;;;;;1.00;0.32;;;;;;;17.57;40.26;101562.13;20829382;28;20127;-86
2023/03/15 18:59:34;;;;;;;1.58;0.40;;;;;;;17.57;40.24;101562.13;20827841;28;20052;-84
2023/03/15 19:09:36;;;;;;;0.70;0.28;;;;;;;17.57;40.39;101562.13;20859356;28;20644;-86
2023/03/15 19:19:37;;;;;;;1.30;0.40;;;;;;;17.48;40.37;101549.38;20852736;28;20615;-85
2023/03/15 19:29:39;;;;;;;1.38;0.90;;;;;;;17.53;40.41;101561.50;20871988;28;20048;-85
2023/03/15 19:39:41;;;;;;;0.70;0.50;;;;;;;17.53;40.37;101564.19;20879455;28;20049;-85
2023/03/15 19:49:43;;;;;;;1.48;0.50;;;;;;;17.52;40.45;101558.94;20862865;28;20053;-85
2023/03/15 19:59:44;;;;;;;1.17;0.47;;;;;;;17.51;40.32;101562.59;20878304;28;20110;-85
2023/03/15 20:09:46;;;;;;;0.90;0.50;;;;;;;17.42;40.44;101552.50;20876171;28;20080;-85
2023/03/15 20:19:48;;;;;;;1.05;0.50;;;;;;;17.44;40.31;101556.81;20866793;28;20630;-85
2023/03/15 20:29:50;;;;;;;0.68;0.40;;;;;;;17.48;40.42;101552.91;20858693;28;20128;-85
2023/03/15 20:39:52;;;;;;;0.93;0.55;;;;;;;17.48;40.22;101552.91;20877592;28;20580;-85
2023/03/15 20:49:54;;;;;;;1.27;0.65;;;;;;;17.46;40.14;101559.41;20873089;28;20045;-85
2023/03/15 20:59:55;;;;;;;0.70;0.50;;;;;;;17.48;40.24;101558.28;20857060;28;20079;-85
2023/03/15 21:09:57;;;;;;;0.82;0.47;;;;;;;17.47;40.14;101561.13;20874937;28;20440;-85
2023/03/15 21:19:59;;;;;;;0.80;0.63;;;;;;;17.44;39.96;101546.03;20851403;28;20128;-85
2023/03/15 21:30:01;;;;;;;0.95;0.60;;;;;;;17.44;40.09;101546.03;20871291;28;20584;-85
2023/03/15 21:40:05;;;;;;;0.93;0.60;;;;;;;17.45;39.99;101547.75;20858188;28;20048;-85
2023/03/15 21:50:08;;;;;;;1.25;0.50;;;;;;;17.19;39.99;101491.41;20841188;28;20484;-85
2023/03/15 22:00:11;;;;;;;0.95;0.60;;;;;;;17.43;39.81;101527.31;20882168;28;20138;-85
2023/03/15 22:10:14;;;;;;;1.05;0.70;;;;;;;17.31;39.84;101515.69;20887925;28;20041;-85
2023/03/15 22:20:16;;;;;;;1.35;0.60;;;;;;;17.42;39.79;101531.84;20870973;28;20049;-85
2023/03/15 22:30:17;;;;;;;1.55;0.70;;;;;;;17.41;39.78;101511.28;20856651;28;20497;-85
2023/03/15 22:40:19;;;;;;;0.57;0.50;;;;;;;17.42;39.67;101514.81;20886207;28;20041;-85
2023/03/15 22:50:21;;;;;;;1.20;0.73;;;;;;;17.36;39.71;101510.78;20867004;28;20045;-85
2023/03/15 23:00:23;;;;;;;1.38;0.80;;;;;;;17.39;39.86;101515.94;20867816;28;20406;-85
2023/03/15 23:10:25;;;;;;;1.38;0.80;;;;;;;17.38;39.57;101515.06;20868313;28;20068;-85
2023/03/15 23:20:28;;;;;;;1.45;0.73;;;;;;;17.37;39.69;101507.13;20881672;28;20064;-85
2023/03/15 23:30:31;;;;;;;1.42;1.05;;;;;;;17.22;39.66;101485.78;20880461;28;20553;-86
2023/03/15 23:40:36;;;;;;;1.55;0.77;;;;;;;17.37;39.48;101517.88;20881706;28;20506;-85
2023/03/15 23:50:39;;;;;;;1.98;0.90;;;;;;;17.37;39.79;101501.75;20864232;28;20045;-85
